createdAt,value
2023-05-10T00:01:42.132Z,11.71
2023-05-10T00:05:43.969Z,11.66
2023-05-10T00:09:45.726Z,11.63
2023-05-10T00:13:47.543Z,11.62
2023-05-10T00:17:49.428Z,11.58
2023-05-10T00:21:51.449Z,11.55
2023-05-10T00:25:53.407Z,11.53
2023-05-10T00:29:55.229Z,11.48
2023-05-10T00:33:57.138Z,11.45
2023-05-10T00:37:59.317Z,11.41
2023-05-10T00:42:01.434Z,11.37
2023-05-10T00:46:04.869Z,11.31
2023-05-10T00:50:07.734Z,11.26
2023-05-10T00:54:12.330Z,11.29
2023-05-10T00:58:14.206Z,11.31
2023-05-10T01:02:16.382Z,11.30
2023-05-10T01:06:18.248Z,11.29
2023-05-10T01:10:20.934Z,11.26
2023-05-10T01:14:23.054Z,11.28
2023-05-10T01:18:27.013Z,11.25
2023-05-10T01:22:51.229Z,11.25
2023-05-10T01:27:15.916Z,11.23
2023-05-10T01:31:43.519Z,11.18
2023-05-10T01:36:04.060Z,11.16
2023-05-10T01:40:22.722Z,11.19
2023-05-10T01:44:29.309Z,11.24
2023-05-10T01:48:32.595Z,11.26
2023-05-10T01:52:42.150Z,11.28
2023-05-10T01:56:45.061Z,11.32
2023-05-10T02:00:50.777Z,11.38
2023-05-10T02:04:56.629Z,11.41
2023-05-10T02:08:58.710Z,11.44
2023-05-10T02:13:01.743Z,11.46
2023-05-10T02:17:06.420Z,11.49
2023-05-10T02:21:11.126Z,11.51
2023-05-10T02:25:16.848Z,11.53
2023-05-10T02:29:20.548Z,11.56
2023-05-10T02:33:24.528Z,11.56
2023-05-10T02:37:28.576Z,11.55
2023-05-10T02:41:33.585Z,11.58
2023-05-10T02:45:37.638Z,11.60
2023-05-10T02:49:39.464Z,11.59
2023-05-10T02:53:43.885Z,11.58
2023-05-10T02:57:57.025Z,11.59
2023-05-10T03:01:58.939Z,11.58
2023-05-10T03:06:00.798Z,11.57
2023-05-10T03:10:04.115Z,11.54
2023-05-10T03:14:28.600Z,11.54
2023-05-10T03:18:48.631Z,11.57
2023-05-10T03:22:56.388Z,11.59
2023-05-10T03:27:04.022Z,11.60
2023-05-10T03:31:07.398Z,11.62
2023-05-10T03:35:10.915Z,11.66
2023-05-10T03:39:13.387Z,11.68
2023-05-10T03:43:15.935Z,11.71
2023-05-10T03:47:17.936Z,11.73
2023-05-10T03:51:19.941Z,11.72
2023-05-10T03:55:22.035Z,11.73
2023-05-10T03:59:23.926Z,11.73
2023-05-10T04:03:27.626Z,11.75
2023-05-10T04:07:30.427Z,11.75
2023-05-10T04:11:32.326Z,11.74
2023-05-10T04:15:34.124Z,11.75
2023-05-10T04:19:36.016Z,11.72
2023-05-10T04:23:37.853Z,11.69
2023-05-10T04:27:39.709Z,11.64
2023-05-10T04:31:41.852Z,11.59
2023-05-10T04:35:43.666Z,11.58
2023-05-10T04:39:45.484Z,11.58
2023-05-10T04:43:47.529Z,11.59
2023-05-10T04:47:49.568Z,11.60
2023-05-10T04:51:51.425Z,11.63
2023-05-10T04:55:53.255Z,11.65
2023-05-10T04:59:55.251Z,11.67
2023-05-10T05:03:57.267Z,11.74
2023-05-10T05:07:59.460Z,11.75
2023-05-10T05:12:01.351Z,11.83
2023-05-10T05:16:03.968Z,11.91
2023-05-10T05:20:06.628Z,11.97
2023-05-10T05:24:08.965Z,11.98
2023-05-10T05:28:11.066Z,12.00
2023-05-10T05:32:12.990Z,12.06
2023-05-10T05:36:14.857Z,12.05
2023-05-10T05:40:16.775Z,12.03
2023-05-10T05:44:18.572Z,12.03
2023-05-10T05:48:20.740Z,12.05
2023-05-10T05:52:22.631Z,12.07
2023-05-10T05:56:25.751Z,12.14
2023-05-10T06:00:27.653Z,12.15
2023-05-10T06:04:29.695Z,12.18
2023-05-10T06:08:31.616Z,12.19
2023-05-10T06:12:33.416Z,12.23
2023-05-10T06:16:35.984Z,12.17
2023-05-10T06:20:37.830Z,12.09
2023-05-10T06:24:39.620Z,12.08
2023-05-10T06:28:42.002Z,12.15
2023-05-10T06:32:45.171Z,12.24
2023-05-10T06:36:47.081Z,12.44
2023-05-10T06:40:48.984Z,12.52
2023-05-10T06:44:50.788Z,12.57
2023-05-10T06:48:52.615Z,12.68
2023-05-10T06:52:54.589Z,12.72
2023-05-10T06:56:56.457Z,12.77
2023-05-10T07:01:04.479Z,12.72
2023-05-10T07:05:06.502Z,12.76
2023-05-10T07:09:08.952Z,12.86
2023-05-10T07:13:11.788Z,13.04
2023-05-10T07:17:13.776Z,13.19
2023-05-10T07:21:15.818Z,13.30
2023-05-10T07:25:17.955Z,13.38
2023-05-10T07:29:19.962Z,13.48
2023-05-10T07:33:21.882Z,13.64
2023-05-10T07:37:23.831Z,13.72
2023-05-10T07:41:25.645Z,13.80
2023-05-10T07:45:27.459Z,13.91
2023-05-10T07:49:29.515Z,14.01
2023-05-10T07:53:31.256Z,14.02
2023-05-10T07:57:33.086Z,13.98
2023-05-10T08:01:35.994Z,13.97
2023-05-10T08:05:37.795Z,13.93
2023-05-10T08:09:39.812Z,13.94
2023-05-10T08:13:41.651Z,13.97
2023-05-10T08:17:44.357Z,14.00
2023-05-10T08:21:47.006Z,14.14
2023-05-10T08:25:48.882Z,14.24
2023-05-10T08:29:50.910Z,14.20
2023-05-10T08:33:53.847Z,14.07
2023-05-10T08:37:55.763Z,13.99
2023-05-10T08:42:01.511Z,13.95
2023-05-10T08:46:06.459Z,13.99
2023-05-10T08:50:09.218Z,14.04
2023-05-10T08:54:11.638Z,14.07
2023-05-10T08:58:13.550Z,14.02
2023-05-10T09:02:17.365Z,13.99
2023-05-10T09:06:20.891Z,14.03
2023-05-10T09:10:23.959Z,14.11
2023-05-10T09:14:26.342Z,14.19
2023-05-10T09:18:28.551Z,14.25
2023-05-10T09:22:31.374Z,14.24
2023-05-10T09:26:33.433Z,14.21
2023-05-10T09:30:35.265Z,14.14
2023-05-10T09:34:41.119Z,14.05
2023-05-10T09:38:53.834Z,14.00
2023-05-10T09:43:09.397Z,13.99
2023-05-10T09:47:11.200Z,14.01
2023-05-10T09:51:26.030Z,14.11
2023-05-10T09:55:46.019Z,14.30
2023-05-10T09:59:48.505Z,14.46
2023-05-10T10:03:51.197Z,14.69
2023-05-10T10:07:53.592Z,14.87
2023-05-10T10:11:55.452Z,15.06
2023-05-10T10:15:57.347Z,15.28
2023-05-10T10:19:59.876Z,15.46
2023-05-10T10:24:02.491Z,15.51
2023-05-10T10:28:17.532Z,15.56
2023-05-10T10:32:33.327Z,15.46
2023-05-10T10:36:46.017Z,15.33
2023-05-10T10:40:48.368Z,15.17
2023-05-10T10:44:50.179Z,15.13
2023-05-10T10:49:11.293Z,15.20
2023-05-10T10:53:13.428Z,15.18
2023-05-10T10:57:16.030Z,15.20
2023-05-10T11:01:19.653Z,15.23
2023-05-10T11:05:33.906Z,15.17
2023-05-10T11:09:41.547Z,14.98
2023-05-10T11:13:47.760Z,14.87
2023-05-10T11:17:53.275Z,14.87
2023-05-10T11:22:06.990Z,14.84
2023-05-10T11:26:12.235Z,14.76
2023-05-10T11:30:15.373Z,14.78
2023-05-10T11:34:36.911Z,14.75
2023-05-10T11:38:38.718Z,14.72
2023-05-10T11:42:40.752Z,14.81
2023-05-10T11:46:42.806Z,14.90
2023-05-10T11:50:45.236Z,14.90
2023-05-10T11:54:52.901Z,14.77
